LOT15 LFLL-EPWA
Flight info
| Callsign | LOT15 |
|---|---|
| Flight time | N/A |
| Altitude | 38000 |
| Route | RISOR T45 SOSAL N871 KORED DCT BERSU DCT DITON DCT DEGES DCT GAMSA DCT KONIN DCT MEBEK DCT NENUM N871 BEPAS DCT LEGAZ DCT LAGAR DCT VAGSA DCT OKENO Q277 AGAVA |
| Aircraft | B738/M-SDE2E3FGHIRWXY/LB1 |
Departure
| Time | N/A |
|---|---|
| Airport | Lyon Saint-Exupéry Airport (LFLL) |
Arrival
| Time | 2026-05-01 08:37 |
|---|---|
| Airport | Warsaw Chopin Airport (EPWA) |
| Time | Latitude | Longitude | Altitude | Speed | Heading |
|---|---|---|---|---|---|
| 2026-05-01 07:23 | 48.13652 | 12.25596 | 38342 ft | 402 kts | 62° |
| 2026-05-01 07:24 | 48.17173 | 12.36965 | 38343 ft | 401 kts | 62° |
| 2026-05-01 07:24 | 48.19514 | 12.44550 | 38346 ft | 402 kts | 62° |
| 2026-05-01 07:25 | 48.21921 | 12.52092 | 38348 ft | 400 kts | 58° |
| 2026-05-01 07:25 | 48.25171 | 12.58794 | 38356 ft | 396 kts | 44° |
| 2026-05-01 07:26 | 48.29259 | 12.64320 | 38357 ft | 397 kts | 39° |
| 2026-05-01 07:26 | 48.33528 | 12.69533 | 38355 ft | 397 kts | 39° |
| 2026-05-01 07:27 | 48.37831 | 12.74776 | 38358 ft | 397 kts | 39° |
| 2026-05-01 07:27 | 48.42025 | 12.79946 | 38360 ft | 400 kts | 39° |
| 2026-05-01 07:28 | 48.46294 | 12.85239 | 38358 ft | 404 kts | 39° |
| 2026-05-01 07:28 | 48.50634 | 12.90653 | 38359 ft | 406 kts | 39° |
| 2026-05-01 07:29 | 48.54932 | 12.96193 | 38360 ft | 409 kts | 43° |
| 2026-05-01 07:29 | 48.58952 | 13.02253 | 38360 ft | 410 kts | 45° |
| 2026-05-01 07:30 | 48.62896 | 13.08510 | 38364 ft | 410 kts | 45° |
| 2026-05-01 07:30 | 48.66753 | 13.14647 | 38374 ft | 401 kts | 45° |
| 2026-05-01 07:31 | 48.70638 | 13.20775 | 38373 ft | 404 kts | 45° |
| 2026-05-01 07:31 | 48.76433 | 13.29868 | 38377 ft | 391 kts | 45° |
| 2026-05-01 07:32 | 48.80199 | 13.35775 | 38371 ft | 394 kts | 45° |
| 2026-05-01 07:33 | 48.85970 | 13.44839 | 38359 ft | 398 kts | 44° |
| 2026-05-01 07:33 | 48.92401 | 13.52692 | 38356 ft | 398 kts | 30° |
| 2026-05-01 07:34 | 48.99866 | 13.58242 | 38346 ft | 399 kts | 25° |
| 2026-05-01 07:35 | 49.04909 | 13.61711 | 38347 ft | 398 kts | 26° |
| 2026-05-01 07:35 | 49.09953 | 13.65226 | 38358 ft | 399 kts | 26° |
| 2026-05-01 07:36 | 49.14967 | 13.68765 | 38364 ft | 399 kts | 27° |
| 2026-05-01 07:36 | 49.20014 | 13.72355 | 38374 ft | 399 kts | 27° |
| 2026-05-01 07:37 | 49.27533 | 13.77730 | 38382 ft | 399 kts | 26° |
| 2026-05-01 07:37 | 49.32542 | 13.81320 | 38383 ft | 399 kts | 27° |
| 2026-05-01 07:38 | 49.37564 | 13.84929 | 38387 ft | 399 kts | 27° |
| 2026-05-01 07:39 | 49.45051 | 13.90324 | 38384 ft | 399 kts | 26° |
| 2026-05-01 07:39 | 49.52579 | 13.95766 | 38383 ft | 399 kts | 26° |
| 2026-05-01 07:40 | 49.57594 | 13.99403 | 38384 ft | 400 kts | 26° |
| 2026-05-01 07:40 | 49.62593 | 14.03037 | 38388 ft | 399 kts | 26° |
| 2026-05-01 07:41 | 49.67609 | 14.06691 | 38380 ft | 399 kts | 26° |
| 2026-05-01 07:42 | 49.75148 | 14.12200 | 38382 ft | 399 kts | 26° |
| 2026-05-01 07:42 | 49.80141 | 14.15858 | 38388 ft | 399 kts | 26° |
| 2026-05-01 07:43 | 49.85191 | 14.19566 | 38390 ft | 401 kts | 26° |
| 2026-05-01 07:43 | 49.92697 | 14.25093 | 38387 ft | 400 kts | 26° |
| 2026-05-01 07:44 | 50.02744 | 14.32522 | 38393 ft | 400 kts | 26° |
| 2026-05-01 07:45 | 50.07774 | 14.36254 | 38396 ft | 400 kts | 26° |
| 2026-05-01 07:45 | 50.12750 | 14.39955 | 38398 ft | 401 kts | 26° |
| 2026-05-01 07:46 | 50.17771 | 14.43698 | 38398 ft | 400 kts | 26° |
| 2026-05-01 07:47 | 50.25308 | 14.49333 | 38404 ft | 401 kts | 26° |
| 2026-05-01 07:47 | 50.30309 | 14.53082 | 38401 ft | 400 kts | 26° |
| 2026-05-01 07:48 | 50.37812 | 14.58725 | 38398 ft | 401 kts | 26° |
| 2026-05-01 07:48 | 50.42852 | 14.62527 | 38392 ft | 401 kts | 26° |
| 2026-05-01 07:49 | 50.50384 | 14.68224 | 38387 ft | 401 kts | 27° |
| 2026-05-01 07:50 | 50.55409 | 14.72036 | 38385 ft | 400 kts | 27° |
| 2026-05-01 07:50 | 50.62688 | 14.78391 | 38387 ft | 400 kts | 39° |
| 2026-05-01 07:51 | 50.66471 | 14.84892 | 38385 ft | 405 kts | 53° |
| 2026-05-01 07:52 | 50.70243 | 14.96758 | 38379 ft | 408 kts | 66° |
| 2026-05-01 07:52 | 50.72199 | 15.05155 | 38373 ft | 409 kts | 66° |
| 2026-05-01 07:53 | 50.75100 | 15.17768 | 38371 ft | 409 kts | 66° |
| 2026-05-01 07:53 | 50.77059 | 15.26150 | 38370 ft | 408 kts | 66° |
| 2026-05-01 07:55 | 50.82125 | 15.47017 | 38361 ft | 408 kts | 64° |
| 2026-05-01 07:56 | 50.87493 | 15.67792 | 38362 ft | 408 kts | 65° |
| 2026-05-01 07:57 | 50.90664 | 15.80259 | 38581 ft | 408 kts | 65° |
| 2026-05-01 07:57 | 50.92782 | 15.88647 | 38376 ft | 405 kts | 65° |
| 2026-05-01 07:58 | 50.94864 | 15.96920 | 38371 ft | 406 kts | 65° |
| 2026-05-01 07:59 | 50.99024 | 16.13538 | 38379 ft | 406 kts | 65° |
| 2026-05-01 08:00 | 51.05214 | 16.38511 | 38381 ft | 408 kts | 65° |
| 2026-05-01 08:01 | 51.09320 | 16.55231 | 38383 ft | 407 kts | 65° |
| 2026-05-01 08:02 | 51.12389 | 16.67815 | 38381 ft | 407 kts | 66° |
| 2026-05-01 08:03 | 51.15431 | 16.80351 | 38385 ft | 407 kts | 65° |
| 2026-05-01 08:03 | 51.18480 | 16.92995 | 38376 ft | 407 kts | 66° |
| 2026-05-01 08:04 | 51.22328 | 17.09992 | 38372 ft | 408 kts | 69° |
| 2026-05-01 08:05 | 51.24644 | 17.23052 | 38368 ft | 408 kts | 70° |
| 2026-05-01 08:06 | 51.26964 | 17.36196 | 38365 ft | 407 kts | 70° |
| 2026-05-01 08:07 | 51.30069 | 17.53586 | 38361 ft | 406 kts | 70° |
| 2026-05-01 08:08 | 51.32390 | 17.66613 | 38355 ft | 406 kts | 70° |
| 2026-05-01 08:09 | 51.35452 | 17.83954 | 38354 ft | 405 kts | 70° |
| 2026-05-01 08:09 | 51.36984 | 17.92688 | 38350 ft | 405 kts | 70° |
| 2026-05-01 08:10 | 51.40001 | 18.10008 | 38349 ft | 405 kts | 70° |
| 2026-05-01 08:11 | 51.42981 | 18.27292 | 38349 ft | 404 kts | 70° |
| 2026-05-01 08:12 | 51.45215 | 18.40367 | 38311 ft | 403 kts | 70° |
| 2026-05-01 08:12 | 51.46662 | 18.48907 | 37480 ft | 392 kts | 70° |
| 2026-05-01 08:13 | 51.47370 | 18.53106 | 36985 ft | 386 kts | 70° |
| 2026-05-01 08:13 | 51.48060 | 18.57205 | 36514 ft | 381 kts | 70° |
| 2026-05-01 08:13 | 51.49429 | 18.65336 | 35523 ft | 378 kts | 70° |
| 2026-05-01 08:14 | 51.50116 | 18.69419 | 34964 ft | 377 kts | 70° |
| 2026-05-01 08:14 | 51.50797 | 18.73483 | 34369 ft | 377 kts | 70° |
| 2026-05-01 08:14 | 51.51473 | 18.77525 | 33760 ft | 377 kts | 70° |
| 2026-05-01 08:14 | 51.52152 | 18.81597 | 33158 ft | 377 kts | 70° |
| 2026-05-01 08:15 | 51.52827 | 18.85659 | 32536 ft | 378 kts | 70° |
| 2026-05-01 08:15 | 51.54178 | 18.93821 | 31277 ft | 378 kts | 70° |
| 2026-05-01 08:15 | 51.54850 | 18.97899 | 30615 ft | 379 kts | 70° |
| 2026-05-01 08:16 | 51.55515 | 19.01939 | 29932 ft | 378 kts | 70° |
| 2026-05-01 08:16 | 51.56189 | 19.06044 | 29238 ft | 379 kts | 70° |
| 2026-05-01 08:16 | 51.56855 | 19.10105 | 28531 ft | 380 kts | 70° |
| 2026-05-01 08:16 | 51.57528 | 19.14224 | 27794 ft | 381 kts | 70° |
| 2026-05-01 08:17 | 51.58200 | 19.18343 | 27050 ft | 382 kts | 70° |
| 2026-05-01 08:17 | 51.58867 | 19.22444 | 26267 ft | 383 kts | 70° |
| 2026-05-01 08:17 | 51.59535 | 19.26560 | 25470 ft | 384 kts | 70° |
| 2026-05-01 08:17 | 51.60207 | 19.30712 | 24646 ft | 385 kts | 70° |
| 2026-05-01 08:18 | 51.60878 | 19.34872 | 24018 ft | 389 kts | 70° |
| 2026-05-01 08:18 | 51.62293 | 19.43601 | 23049 ft | 409 kts | 70° |
| 2026-05-01 08:19 | 51.63679 | 19.52327 | 21978 ft | 394 kts | 70° |
| 2026-05-01 08:19 | 51.64339 | 19.56517 | 21459 ft | 387 kts | 70° |
| 2026-05-01 08:19 | 51.64782 | 19.59326 | 21109 ft | 382 kts | 70° |
| 2026-05-01 08:20 | 51.66825 | 19.72214 | 19492 ft | 390 kts | 71° |
| 2026-05-01 08:20 | 51.67492 | 19.76410 | 18946 ft | 386 kts | 71° |
| 2026-05-01 08:20 | 51.68142 | 19.80546 | 18414 ft | 379 kts | 71° |
| 2026-05-01 08:21 | 51.68780 | 19.84622 | 17897 ft | 372 kts | 71° |
| 2026-05-01 08:21 | 51.69400 | 19.88598 | 17381 ft | 366 kts | 71° |
| 2026-05-01 08:21 | 51.70017 | 19.92552 | 16864 ft | 360 kts | 71° |
| 2026-05-01 08:21 | 51.70628 | 19.96462 | 16363 ft | 365 kts | 71° |
| 2026-05-01 08:22 | 51.71263 | 20.00499 | 15822 ft | 377 kts | 71° |
| 2026-05-01 08:22 | 51.71901 | 20.04584 | 15268 ft | 374 kts | 71° |
| 2026-05-01 08:22 | 51.72518 | 20.08589 | 14729 ft | 368 kts | 72° |
| 2026-05-01 08:22 | 51.73128 | 20.12579 | 14187 ft | 362 kts | 72° |
| 2026-05-01 08:23 | 51.73721 | 20.16453 | 13659 ft | 357 kts | 72° |
| 2026-05-01 08:23 | 51.74311 | 20.20315 | 13130 ft | 351 kts | 72° |
| 2026-05-01 08:23 | 51.74891 | 20.24114 | 12605 ft | 346 kts | 72° |
| 2026-05-01 08:23 | 51.75463 | 20.27852 | 12091 ft | 353 kts | 72° |
| 2026-05-01 08:24 | 51.76071 | 20.31808 | 11638 ft | 358 kts | 72° |
| 2026-05-01 08:24 | 51.76646 | 20.35598 | 11361 ft | 346 kts | 72° |
| 2026-05-01 08:24 | 51.77206 | 20.39337 | 11200 ft | 330 kts | 72° |
| 2026-05-01 08:24 | 51.77725 | 20.42816 | 11072 ft | 315 kts | 72° |
| 2026-05-01 08:25 | 51.78231 | 20.46193 | 10948 ft | 301 kts | 71° |
| 2026-05-01 08:25 | 51.78715 | 20.49406 | 10827 ft | 288 kts | 71° |
| 2026-05-01 08:25 | 51.79183 | 20.52514 | 10702 ft | 276 kts | 71° |
| 2026-05-01 08:25 | 51.79626 | 20.55458 | 10585 ft | 264 kts | 71° |
| 2026-05-01 08:26 | 51.80051 | 20.58279 | 10461 ft | 254 kts | 70° |
| 2026-05-01 08:26 | 51.80461 | 20.61011 | 10237 ft | 248 kts | 70° |
| 2026-05-01 08:26 | 51.80868 | 20.63723 | 9912 ft | 246 kts | 70° |
| 2026-05-01 08:26 | 51.81266 | 20.66381 | 9612 ft | 244 kts | 71° |
| 2026-05-01 08:27 | 51.81658 | 20.69021 | 9319 ft | 241 kts | 71° |
| 2026-05-01 08:27 | 51.82048 | 20.71636 | 9041 ft | 238 kts | 71° |
| 2026-05-01 08:27 | 51.82433 | 20.74233 | 8754 ft | 236 kts | 72° |
| 2026-05-01 08:27 | 51.82819 | 20.76837 | 8536 ft | 244 kts | 71° |
| 2026-05-01 08:28 | 51.83228 | 20.79578 | 8424 ft | 251 kts | 72° |
| 2026-05-01 08:28 | 51.83637 | 20.82340 | 8279 ft | 253 kts | 72° |
| 2026-05-01 08:28 | 51.84041 | 20.85101 | 8004 ft | 250 kts | 72° |
| 2026-05-01 08:28 | 51.84439 | 20.87837 | 7640 ft | 251 kts | 72° |
| 2026-05-01 08:29 | 51.84839 | 20.90570 | 7294 ft | 250 kts | 72° |
| 2026-05-01 08:29 | 51.85234 | 20.93274 | 6950 ft | 249 kts | 72° |
| 2026-05-01 08:29 | 51.85631 | 20.95988 | 6601 ft | 248 kts | 72° |
| 2026-05-01 08:29 | 51.86032 | 20.98730 | 6207 ft | 249 kts | 73° |
| 2026-05-01 08:30 | 51.86432 | 21.01467 | 5827 ft | 250 kts | 73° |
| 2026-05-01 08:30 | 51.86819 | 21.04140 | 5702 ft | 240 kts | 73° |
| 2026-05-01 08:30 | 51.87210 | 21.06698 | 5604 ft | 229 kts | 68° |
| 2026-05-01 08:30 | 51.87812 | 21.09028 | 5359 ft | 223 kts | 58° |
| 2026-05-01 08:31 | 51.88565 | 21.11193 | 5092 ft | 221 kts | 56° |
| 2026-05-01 08:31 | 51.89335 | 21.13361 | 4852 ft | 219 kts | 57° |
| 2026-05-01 08:31 | 51.90196 | 21.15420 | 4597 ft | 222 kts | 43° |
| 2026-05-01 08:31 | 51.91462 | 21.16757 | 4339 ft | 219 kts | 12° |
| 2026-05-01 08:32 | 51.92969 | 21.16754 | 4161 ft | 216 kts | 344° |
| 2026-05-01 08:32 | 51.94349 | 21.15876 | 4095 ft | 210 kts | 335° |
| 2026-05-01 08:32 | 51.95634 | 21.14829 | 4033 ft | 208 kts | 333° |
| 2026-05-01 08:32 | 51.96912 | 21.13737 | 3960 ft | 209 kts | 333° |
| 2026-05-01 08:33 | 51.98193 | 21.12633 | 3808 ft | 205 kts | 332° |
| 2026-05-01 08:33 | 51.99448 | 21.11552 | 3518 ft | 206 kts | 332° |
| 2026-05-01 08:33 | 52.00717 | 21.10457 | 3242 ft | 206 kts | 332° |
| 2026-05-01 08:33 | 52.01953 | 21.09389 | 3142 ft | 196 kts | 332° |
| 2026-05-01 08:34 | 52.03131 | 21.08370 | 2989 ft | 189 kts | 332° |
| 2026-05-01 08:34 | 52.04275 | 21.07381 | 2902 ft | 182 kts | 332° |
| 2026-05-01 08:34 | 52.05372 | 21.06432 | 2669 ft | 179 kts | 332° |
| 2026-05-01 08:34 | 52.06458 | 21.05492 | 2412 ft | 177 kts | 332° |
| 2026-05-01 08:35 | 52.07536 | 21.04558 | 2165 ft | 174 kts | 332° |
| 2026-05-01 08:35 | 52.08598 | 21.03638 | 1923 ft | 171 kts | 332° |
| 2026-05-01 08:35 | 52.09631 | 21.02741 | 1690 ft | 168 kts | 332° |
| 2026-05-01 08:35 | 52.10659 | 21.01851 | 1460 ft | 163 kts | 333° |
| 2026-05-01 08:36 | 52.11628 | 21.01014 | 1263 ft | 153 kts | 332° |
| 2026-05-01 08:36 | 52.12535 | 21.00224 | 1051 ft | 149 kts | 332° |
| 2026-05-01 08:36 | 52.13445 | 20.99434 | 838 ft | 148 kts | 332° |
| 2026-05-01 08:36 | 52.14352 | 20.98643 | 605 ft | 148 kts | 332° |
| 2026-05-01 08:37 | 52.15271 | 20.97844 | 406 ft | 149 kts | 332° |
| 2026-05-01 08:37 | 52.16152 | 20.97081 | 336 ft | 124 kts | 333° |
| 2026-05-01 08:37 | 52.16676 | 20.96624 | 330 ft | 51 kts | 332° |
| 2026-05-01 08:37 | 52.16947 | 20.96386 | 332 ft | 37 kts | 331° |
| 2026-05-01 08:38 | 52.17095 | 20.96267 | 336 ft | 15 kts | 342° |
| 2026-05-01 08:38 | 52.17190 | 20.96246 | 337 ft | 13 kts | 358° |
| 2026-05-01 08:38 | 52.17288 | 20.96248 | 336 ft | 13 kts | 1° |
| 2026-05-01 08:38 | 52.17367 | 20.96259 | 336 ft | 11 kts | 20° |
| 2026-05-01 08:39 | 52.17418 | 20.96357 | 334 ft | 12 kts | 60° |
| 2026-05-01 08:39 | 52.17463 | 20.96489 | 333 ft | 13 kts | 61° |
| 2026-05-01 08:39 | 52.17513 | 20.96598 | 335 ft | 10 kts | 52° |
| 2026-05-01 08:39 | 52.17548 | 20.96683 | 336 ft | 8 kts | 57° |
| 2026-05-01 08:40 | 52.17593 | 20.96801 | 339 ft | 5 kts | 59° |
| 2026-05-01 08:40 | 52.17614 | 20.96859 | 339 ft | 6 kts | 59° |
| 2026-05-01 08:40 | 52.17617 | 20.96939 | 341 ft | 7 kts | 118° |
| 2026-05-01 08:41 | 52.17569 | 20.97002 | 341 ft | 10 kts | 150° |
| 2026-05-01 08:41 | 52.17502 | 20.97063 | 341 ft | 11 kts | 151° |
| 2026-05-01 08:41 | 52.17442 | 20.97116 | 342 ft | 6 kts | 151° |
| 2026-05-01 08:41 | 52.17410 | 20.97129 | 342 ft | 4 kts | 213° |
| 2026-05-01 08:42 | 52.17386 | 20.97078 | 341 ft | 6 kts | 241° |
| 2026-05-01 08:42 | 52.17375 | 20.97046 | 340 ft | 0 kts | 243° |